createdAt,value
2022-09-20T00:02:37.361Z,100.00
2022-09-20T00:05:42.830Z,100.00
2022-09-20T00:08:46.060Z,100.00
2022-09-20T00:11:48.900Z,100.00
2022-09-20T00:14:51.336Z,100.00
2022-09-20T00:17:54.133Z,100.00
2022-09-20T00:20:56.631Z,100.00
2022-09-20T00:23:59.992Z,100.00
2022-09-20T00:27:03.581Z,100.00
2022-09-20T00:30:07.199Z,100.00
2022-09-20T00:33:09.708Z,100.00
2022-09-20T00:36:12.731Z,100.00
2022-09-20T00:39:16.406Z,100.00
2022-09-20T00:42:19.236Z,100.00
2022-09-20T00:45:27.406Z,100.00
2022-09-20T00:48:32.819Z,100.00
2022-09-20T00:51:41.006Z,100.00
2022-09-20T00:54:44.144Z,100.00
2022-09-20T00:57:47.487Z,100.00
2022-09-20T01:00:54.831Z,100.00
2022-09-20T01:03:58.947Z,100.00
2022-09-20T01:07:04.515Z,100.00
2022-09-20T01:10:07.231Z,100.00
2022-09-20T01:13:09.994Z,100.00
2022-09-20T01:16:14.349Z,100.00
2022-09-20T01:19:35.274Z,100.00
2022-09-20T01:23:02.481Z,100.00
2022-09-20T01:26:40.830Z,100.00
2022-09-20T01:29:49.411Z,100.00
2022-09-20T01:32:58.101Z,100.00
2022-09-20T01:36:05.261Z,100.00
2022-09-20T01:39:42.875Z,100.00
2022-09-20T01:42:56.308Z,100.00
2022-09-20T01:46:10.333Z,100.00
2022-09-20T01:49:41.456Z,100.00
2022-09-20T01:53:09.126Z,100.00
2022-09-20T01:56:20.672Z,100.00
2022-09-20T01:59:34.798Z,100.00
2022-09-20T02:03:09.636Z,100.00
2022-09-20T02:06:18.033Z,100.00
2022-09-20T02:09:49.653Z,100.00
2022-09-20T02:12:56.043Z,100.00
2022-09-20T02:16:29.720Z,100.00
2022-09-20T02:19:46.781Z,100.00
2022-09-20T02:23:17.042Z,100.00
2022-09-20T02:26:38.350Z,100.00
2022-09-20T02:30:06.640Z,100.00
2022-09-20T02:33:34.271Z,100.00
2022-09-20T02:36:52.684Z,100.00
2022-09-20T02:40:40.121Z,100.00
2022-09-20T02:44:16.759Z,100.00
2022-09-20T02:47:25.582Z,100.00
2022-09-20T02:50:59.148Z,100.00
2022-09-20T02:54:14.297Z,100.00
2022-09-20T02:57:38.925Z,100.00
2022-09-20T03:01:13.729Z,100.00
2022-09-20T03:04:40.528Z,100.00
2022-09-20T03:08:13.711Z,100.00
2022-09-20T03:12:02.280Z,100.00
2022-09-20T03:15:11.290Z,100.00
2022-09-20T03:18:33.406Z,100.00
2022-09-20T03:21:52.387Z,100.00
2022-09-20T03:25:04.583Z,100.00
2022-09-20T03:28:44.230Z,100.00
2022-09-20T03:31:52.483Z,100.00
2022-09-20T03:35:03.483Z,100.00
2022-09-20T03:38:41.438Z,100.00
2022-09-20T03:41:59.289Z,100.00
2022-09-20T03:45:01.856Z,100.00
2022-09-20T03:48:37.022Z,100.00
2022-09-20T03:52:00.380Z,100.00
2022-09-20T03:55:14.101Z,100.00
2022-09-20T03:58:52.766Z,100.00
2022-09-20T04:02:13.642Z,100.00
2022-09-20T04:05:25.738Z,100.00
2022-09-20T04:09:13.043Z,100.00
2022-09-20T04:12:27.139Z,100.00
2022-09-20T04:15:46.710Z,100.00
2022-09-20T04:19:11.616Z,100.00
2022-09-20T04:22:14.852Z,100.00
2022-09-20T04:25:23.726Z,100.00
2022-09-20T04:28:33.692Z,100.00
2022-09-20T04:31:50.916Z,100.00
2022-09-20T04:35:38.343Z,100.00
2022-09-20T04:38:41.661Z,100.00
2022-09-20T04:42:18.983Z,100.00
2022-09-20T04:45:33.888Z,100.00
2022-09-20T04:48:52.513Z,100.00
2022-09-20T04:52:13.581Z,100.00
2022-09-20T04:55:38.759Z,100.00
2022-09-20T04:58:56.781Z,100.00
2022-09-20T05:02:28.025Z,100.00
2022-09-20T05:05:49.016Z,100.00
2022-09-20T05:09:13.603Z,100.00
2022-09-20T05:12:54.590Z,100.00
2022-09-20T05:16:18.237Z,100.00
2022-09-20T05:19:31.256Z,100.00
2022-09-20T05:22:45.684Z,100.00
2022-09-20T05:26:09.931Z,100.00
2022-09-20T05:29:29.676Z,100.00
2022-09-20T05:32:55.718Z,100.00
2022-09-20T05:36:17.441Z,100.00
2022-09-20T05:39:38.545Z,100.00
2022-09-20T05:43:01.729Z,100.00
2022-09-20T05:46:32.856Z,100.00
2022-09-20T05:49:50.666Z,100.00
2022-09-20T05:52:59.389Z,100.00
2022-09-20T05:56:07.788Z,100.00
2022-09-20T05:59:37.521Z,100.00
2022-09-20T06:03:06.051Z,100.00
2022-09-20T06:06:30.414Z,100.00
2022-09-20T06:09:55.918Z,100.00
2022-09-20T06:13:16.584Z,100.00
2022-09-20T06:16:35.442Z,100.00
2022-09-20T06:20:16.443Z,100.00
2022-09-20T06:23:19.252Z,100.00
2022-09-20T06:26:27.107Z,100.00
2022-09-20T06:29:34.171Z,100.00
2022-09-20T06:33:12.899Z,100.00
2022-09-20T06:36:52.392Z,100.00
2022-09-20T06:40:44.705Z,100.00
2022-09-20T06:43:48.613Z,100.00
2022-09-20T06:46:54.417Z,100.00
2022-09-20T06:49:58.931Z,99.38
2022-09-20T06:53:04.793Z,96.37
2022-09-20T06:56:17.346Z,94.55
2022-09-20T06:59:20.254Z,90.94
2022-09-20T07:02:22.796Z,93.02
2022-09-20T07:05:26.542Z,92.23
2022-09-20T07:08:28.998Z,89.47
2022-09-20T07:11:34.561Z,87.27
2022-09-20T07:14:37.362Z,83.53
2022-09-20T07:17:40.191Z,84.54
2022-09-20T07:20:42.634Z,84.89
2022-09-20T07:23:48.616Z,86.42
2022-09-20T07:26:57.350Z,81.72
2022-09-20T07:30:00.564Z,79.40
2022-09-20T07:33:03.132Z,75.30
2022-09-20T07:36:06.126Z,73.48
2022-09-20T07:39:08.587Z,75.18
2022-09-20T07:42:12.454Z,74.16
2022-09-20T07:45:15.302Z,73.84
2022-09-20T07:48:18.151Z,72.11
2022-09-20T07:51:21.375Z,69.23
2022-09-20T07:54:24.314Z,66.10
2022-09-20T07:57:26.897Z,70.04
2022-09-20T08:00:29.756Z,65.19
2022-09-20T08:03:34.555Z,62.49
2022-09-20T08:06:39.311Z,67.09
2022-09-20T08:09:42.258Z,65.48
2022-09-20T08:16:10.671Z,62.56
2022-09-20T08:19:18.988Z,59.63
2022-09-20T08:22:23.399Z,62.01
2022-09-20T08:25:25.952Z,57.48
2022-09-20T08:28:30.137Z,63.06
2022-09-20T08:31:36.764Z,66.40
2022-09-20T08:34:40.654Z,63.00
2022-09-20T08:37:43.669Z,66.11
2022-09-20T08:40:47.319Z,65.86
2022-09-20T08:43:56.483Z,62.46
2022-09-20T08:47:21.300Z,64.86
2022-09-20T08:50:24.459Z,67.07
2022-09-20T08:53:29.451Z,71.65
2022-09-20T08:56:38.857Z,69.17
2022-09-20T08:59:41.953Z,71.74
2022-09-20T09:02:45.029Z,71.39
2022-09-20T09:05:58.095Z,75.55
2022-09-20T09:09:00.814Z,74.85
2022-09-20T09:12:04.218Z,76.10
2022-09-20T09:15:30.122Z,73.66
2022-09-20T09:18:37.559Z,74.51
2022-09-20T09:21:47.036Z,72.30
2022-09-20T09:25:07.473Z,73.05
2022-09-20T09:28:23.335Z,73.39
2022-09-20T09:31:26.713Z,74.07
2022-09-20T09:34:33.423Z,72.11
2022-09-20T09:37:36.208Z,74.55
2022-09-20T09:40:50.684Z,74.97
2022-09-20T09:44:25.439Z,72.78
2022-09-20T09:47:29.670Z,75.31
2022-09-20T09:50:34.807Z,74.98
2022-09-20T09:53:39.585Z,75.35
2022-09-20T09:57:24.324Z,75.65
2022-09-20T10:00:33.212Z,74.01
2022-09-20T10:04:06.761Z,70.99
2022-09-20T10:07:42.789Z,69.97
2022-09-20T10:11:00.898Z,69.37
2022-09-20T10:14:17.748Z,67.42
2022-09-20T10:17:39.281Z,66.30
2022-09-20T10:20:55.939Z,67.39
2022-09-20T10:24:16.860Z,66.49
2022-09-20T10:27:48.345Z,68.52
2022-09-20T10:31:25.599Z,70.32
2022-09-20T10:34:37.717Z,70.33
2022-09-20T10:38:14.529Z,69.21
2022-09-20T10:42:03.821Z,69.69
2022-09-20T10:45:36.025Z,65.87
2022-09-20T10:48:52.411Z,65.68
2022-09-20T10:51:58.476Z,63.70
2022-09-20T10:55:03.677Z,62.75
2022-09-20T10:58:26.339Z,52.25
2022-09-20T11:01:32.084Z,46.23
2022-09-20T11:05:00.674Z,42.86
2022-09-20T11:08:03.640Z,45.08
2022-09-20T11:11:17.091Z,43.11
2022-09-20T11:14:31.812Z,40.66
2022-09-20T11:18:13.107Z,42.39
2022-09-20T11:21:20.691Z,49.50
2022-09-20T11:24:31.030Z,57.06
2022-09-20T11:27:42.575Z,59.56
2022-09-20T11:31:00.081Z,60.98
2022-09-20T11:34:11.951Z,66.59
2022-09-20T11:37:17.268Z,68.89
2022-09-20T11:40:27.821Z,70.25
2022-09-20T11:43:32.171Z,67.18
2022-09-20T11:46:52.291Z,58.88
2022-09-20T11:50:45.262Z,46.39
2022-09-20T11:53:47.792Z,41.61
2022-09-20T11:56:57.133Z,44.40
2022-09-20T12:00:07.486Z,43.51
2022-09-20T12:03:40.475Z,37.20
2022-09-20T12:06:43.782Z,37.90
2022-09-20T12:09:54.139Z,31.77
2022-09-20T12:13:05.841Z,33.16
2022-09-20T12:16:35.265Z,36.96
2022-09-20T12:19:38.867Z,42.11
2022-09-20T12:22:41.535Z,47.60
2022-09-20T12:26:01.984Z,48.94
2022-09-20T12:29:29.686Z,46.34
2022-09-20T12:32:37.255Z,45.88
2022-09-20T12:35:39.941Z,44.12
2022-09-20T12:38:48.298Z,49.43
2022-09-20T12:42:09.727Z,47.95
2022-09-20T12:45:19.203Z,50.27
2022-09-20T12:48:22.434Z,52.72
2022-09-20T12:51:51.041Z,54.45
2022-09-20T12:54:56.305Z,53.13
2022-09-20T12:58:03.050Z,51.48
2022-09-20T13:01:07.572Z,53.52
2022-09-20T13:04:49.947Z,50.59
2022-09-20T13:07:59.330Z,55.00
2022-09-20T13:11:14.685Z,60.02
2022-09-20T13:14:22.647Z,61.30
2022-09-20T13:17:30.970Z,62.68
2022-09-20T13:20:35.211Z,63.40
2022-09-20T13:23:49.002Z,64.00
2022-09-20T13:26:54.078Z,67.58
2022-09-20T13:30:35.319Z,64.27
2022-09-20T13:33:37.935Z,65.61
2022-09-20T13:36:41.583Z,63.63
2022-09-20T13:39:44.093Z,61.47
2022-09-20T13:42:50.004Z,59.58
2022-09-20T13:46:13.368Z,54.25
2022-09-20T13:49:23.769Z,54.03
2022-09-20T13:52:30.437Z,51.35
2022-09-20T13:55:39.086Z,45.33
2022-09-20T13:58:42.555Z,45.93
2022-09-20T14:01:51.114Z,39.94
2022-09-20T14:04:56.708Z,38.97
2022-09-20T14:08:00.879Z,43.22
2022-09-20T14:11:28.883Z,45.51
2022-09-20T14:14:33.193Z,47.08
2022-09-20T14:17:36.492Z,49.91
2022-09-20T14:20:43.491Z,52.30
2022-09-20T14:24:06.836Z,54.65
2022-09-20T14:27:18.451Z,55.34
2022-09-20T14:30:30.237Z,58.99
2022-09-20T14:33:33.057Z,59.19
2022-09-20T14:36:35.978Z,59.95
2022-09-20T14:39:48.485Z,61.81
2022-09-20T14:42:56.116Z,61.43
2022-09-20T14:46:03.251Z,61.44
2022-09-20T14:49:24.563Z,63.65
2022-09-20T14:52:27.718Z,63.00
2022-09-20T14:55:37.658Z,63.77
2022-09-20T14:59:02.822Z,62.61
2022-09-20T15:02:10.324Z,64.89
2022-09-20T15:05:25.943Z,64.22
2022-09-20T15:08:29.054Z,64.33
2022-09-20T15:11:31.667Z,65.34
2022-09-20T15:14:37.736Z,65.91
2022-09-20T15:17:42.596Z,67.23
2022-09-20T15:20:45.413Z,67.47
2022-09-20T15:23:47.926Z,69.05
2022-09-20T15:26:50.705Z,71.11
2022-09-20T15:29:53.415Z,71.97
2022-09-20T15:33:00.864Z,72.09
2022-09-20T15:36:05.608Z,72.46
2022-09-20T15:39:09.336Z,73.34
2022-09-20T15:42:11.905Z,74.05
2022-09-20T15:45:14.807Z,76.14
2022-09-20T15:48:21.482Z,79.07
2022-09-20T15:51:24.430Z,80.88
2022-09-20T15:54:26.924Z,83.40
2022-09-20T15:57:31.192Z,86.66
2022-09-20T16:00:33.955Z,88.99
2022-09-20T16:03:36.884Z,92.57
2022-09-20T16:06:41.565Z,95.08
2022-09-20T16:09:44.316Z,99.15
2022-09-20T16:12:46.857Z,100.00
2022-09-20T16:15:57.464Z,100.00
2022-09-20T16:19:20.042Z,100.00
2022-09-20T16:22:22.730Z,100.00
2022-09-20T16:25:25.232Z,100.00
2022-09-20T16:28:29.152Z,100.00
2022-09-20T16:31:41.891Z,100.00
2022-09-20T16:34:45.593Z,100.00
2022-09-20T16:37:48.246Z,100.00
2022-09-20T16:40:55.663Z,100.00
2022-09-20T16:43:58.263Z,100.00
2022-09-20T16:47:01.250Z,100.00
2022-09-20T16:50:05.010Z,100.00
2022-09-20T16:53:07.971Z,100.00
2022-09-20T16:56:21.747Z,100.00
2022-09-20T16:59:24.562Z,100.00
2022-09-20T17:02:27.157Z,100.00
2022-09-20T17:05:29.941Z,100.00
2022-09-20T17:08:39.997Z,100.00
2022-09-20T17:11:50.052Z,100.00
2022-09-20T17:14:52.678Z,100.00
2022-09-20T17:17:57.626Z,100.00
2022-09-20T17:21:08.089Z,100.00
2022-09-20T17:24:11.263Z,100.00
2022-09-20T17:27:13.795Z,100.00
2022-09-20T17:30:17.573Z,100.00
2022-09-20T17:33:20.178Z,100.00
2022-09-20T17:36:22.953Z,100.00
2022-09-20T17:39:25.661Z,100.00
2022-09-20T17:42:28.390Z,100.00
2022-09-20T17:45:30.961Z,100.00
2022-09-20T17:48:36.728Z,100.00
2022-09-20T17:51:44.717Z,100.00
2022-09-20T17:54:47.543Z,100.00
2022-09-20T17:57:52.491Z,100.00
2022-09-20T18:01:02.338Z,100.00
2022-09-20T18:04:06.482Z,100.00
2022-09-20T18:07:09.147Z,100.00
2022-09-20T18:10:15.621Z,100.00
2022-09-20T18:13:18.116Z,100.00
2022-09-20T18:16:20.914Z,100.00
2022-09-20T18:19:23.589Z,100.00
2022-09-20T18:22:26.374Z,100.00
2022-09-20T18:25:29.883Z,100.00
2022-09-20T18:28:32.637Z,100.00
2022-09-20T18:31:39.791Z,100.00
2022-09-20T18:34:42.575Z,100.00
2022-09-20T18:37:45.633Z,100.00
2022-09-20T18:40:55.731Z,100.00
2022-09-20T18:43:58.587Z,100.00
2022-09-20T18:47:03.713Z,100.00
2022-09-20T18:50:12.081Z,100.00
2022-09-20T18:53:14.860Z,100.00
2022-09-20T18:56:32.355Z,100.00
2022-09-20T18:59:35.520Z,100.00
2022-09-20T19:02:50.105Z,100.00
2022-09-20T19:06:02.415Z,100.00
2022-09-20T19:09:15.293Z,100.00
2022-09-20T19:12:25.209Z,100.00
2022-09-20T19:15:36.604Z,100.00
2022-09-20T19:19:15.096Z,100.00
2022-09-20T19:22:37.749Z,100.00
2022-09-20T19:25:45.489Z,100.00
2022-09-20T19:28:50.081Z,100.00
2022-09-20T19:31:56.130Z,100.00
2022-09-20T19:35:01.816Z,100.00
2022-09-20T19:38:39.183Z,100.00
2022-09-20T19:41:47.163Z,100.00
2022-09-20T19:44:59.257Z,100.00
2022-09-20T19:48:20.627Z,100.00
2022-09-20T19:51:24.119Z,100.00
2022-09-20T19:54:26.786Z,100.00
2022-09-20T19:57:42.771Z,100.00
2022-09-20T20:00:47.019Z,100.00
2022-09-20T20:03:51.300Z,100.00
2022-09-20T20:07:14.028Z,100.00
2022-09-20T20:10:28.048Z,100.00
2022-09-20T20:14:03.474Z,100.00
2022-09-20T20:17:12.078Z,100.00
2022-09-20T20:20:33.929Z,100.00
2022-09-20T20:23:51.478Z,100.00
2022-09-20T20:26:53.941Z,100.00
2022-09-20T20:29:56.913Z,100.00
2022-09-20T20:32:59.556Z,100.00
2022-09-20T20:36:02.810Z,100.00
2022-09-20T20:39:06.253Z,100.00
2022-09-20T20:42:12.858Z,100.00
2022-09-20T20:45:15.743Z,100.00
2022-09-20T20:48:18.502Z,100.00
2022-09-20T20:51:22.863Z,100.00
2022-09-20T20:54:25.903Z,100.00
2022-09-20T20:57:28.412Z,100.00
2022-09-20T21:00:31.245Z,100.00
2022-09-20T21:03:34.408Z,100.00
2022-09-20T21:06:39.666Z,100.00
2022-09-20T21:09:42.214Z,100.00
2022-09-20T21:12:45.327Z,100.00
2022-09-20T21:15:48.797Z,100.00
2022-09-20T21:18:51.744Z,100.00
2022-09-20T21:21:54.280Z,100.00
2022-09-20T21:24:57.081Z,100.00
2022-09-20T21:28:01.077Z,100.00
2022-09-20T21:31:08.052Z,100.00
2022-09-20T21:34:12.193Z,100.00
2022-09-20T21:37:14.926Z,100.00
2022-09-20T21:40:17.459Z,100.00
2022-09-20T21:43:22.063Z,100.00
2022-09-20T21:46:30.009Z,100.00
2022-09-20T21:49:32.743Z,100.00
2022-09-20T21:52:35.213Z,100.00
2022-09-20T21:55:37.954Z,100.00
2022-09-20T21:58:40.923Z,100.00
2022-09-20T22:01:43.865Z,100.00
2022-09-20T22:04:53.541Z,100.00
2022-09-20T22:07:56.765Z,100.00
2022-09-20T22:10:59.508Z,100.00
2022-09-20T22:14:02.284Z,100.00
2022-09-20T22:17:05.043Z,100.00
2022-09-20T22:20:07.828Z,100.00
2022-09-20T22:23:11.944Z,100.00
2022-09-20T22:26:17.268Z,100.00
2022-09-20T22:29:20.321Z,100.00
2022-09-20T22:32:22.853Z,100.00
2022-09-20T22:35:25.571Z,100.00
2022-09-20T22:38:29.726Z,100.00
2022-09-20T22:41:32.584Z,100.00
2022-09-20T22:44:35.034Z,100.00
2022-09-20T22:47:37.760Z,100.00
2022-09-20T22:50:40.177Z,100.00
2022-09-20T22:53:43.703Z,100.00
2022-09-20T22:56:46.216Z,100.00
2022-09-20T22:59:48.915Z,100.00
2022-09-20T23:02:56.373Z,100.00
2022-09-20T23:05:59.208Z,100.00
2022-09-20T23:09:04.264Z,100.00
2022-09-20T23:12:07.000Z,100.00
2022-09-20T23:15:11.673Z,100.00
2022-09-20T23:18:15.016Z,100.00
2022-09-20T23:21:18.165Z,100.00
2022-09-20T23:24:20.803Z,100.00
2022-09-20T23:27:23.281Z,100.00
2022-09-20T23:30:26.026Z,100.00
2022-09-20T23:33:28.661Z,100.00
2022-09-20T23:36:34.627Z,100.00
2022-09-20T23:39:37.145Z,100.00
2022-09-20T23:42:39.805Z,100.00
2022-09-20T23:45:42.625Z,100.00
2022-09-20T23:48:46.168Z,100.00
2022-09-20T23:51:48.717Z,100.00
2022-09-20T23:54:51.434Z,100.00
2022-09-20T23:57:57.640Z,100.00
